O'Brien, Florida
Current Conditions -  °F | °C
As of 3:35 PM on Monday 26 Jan 2015 (Local Time) from K24J Reporting Station
Scattered Clouds Scattered Clouds  
Wind Chill: 59°   Ceiling: Unl
Heat Index: 59°   Visibility: 10mi
Dew Point: 37°   Wind: 15mph
Humidity: 45%   Direction: 270°W
Pressure: 29.88"   Gusts: 24mph
Location:  30.04°N, 82.94°W
Report Text: K24J 262035Z AUTO 27013G21KT 10SM SCT049 15/03 A2988 RMK AO1
Loading
Personal Weather Stations






























Interactive Weather Map New forecast layout! Learn more

10-Day Weather Forecast

Advertisements
Track Severe Weather on mobile